Time;durP1;ratioP1;P1;durP2;ratioP2;P2;SDS_P1;SDS_P2;PMS_P1;PMS_P2;Temp;Humidity;BMP_temperature;BMP_pressure;BME280_temperature;BME280_humidity;BME280_pressure;Samples;Min_cycle;Max_cycle;Signal;HPM_P1;HPM_P2
2022/10/16 00:01:16;;;;;;;20.30;19.10;;;;;;;;;;5113425;28;20452;-78
2022/10/16 00:03:44;;;;;;;21.60;20.40;;;;;;;;;;5113752;28;21035;-79
2022/10/16 00:06:12;;;;;;;21.20;19.67;;;;;;;;;;5113909;28;20951;-78
2022/10/16 00:08:39;;;;;;;21.57;20.27;;;;;;;;;;5114085;28;20423;-78
2022/10/16 00:11:09;;;;;;;20.80;19.40;;;;;;;;;;5113645;28;20460;-79
2022/10/16 00:13:37;;;;;;;20.80;19.60;;;;;;;;;;5113425;28;20459;-78
2022/10/16 00:16:05;;;;;;;20.77;19.47;;;;;;;;;;5114118;28;20807;-78
2022/10/16 00:18:32;;;;;;;21.27;19.70;;;;;;;;;;5113570;28;20444;-79
2022/10/16 00:21:03;;;;;;;21.43;20.23;;;;;;;;;;5113057;28;20447;-79
2022/10/16 00:23:31;;;;;;;21.97;20.50;;;;;;;;;;5113702;28;20464;-78
2022/10/16 00:25:58;;;;;;;21.23;19.97;;;;;;;;;;5113464;28;20893;-79
2022/10/16 00:28:27;;;;;;;21.00;19.70;;;;;;;;;;5113557;28;20451;-78
2022/10/16 00:30:55;;;;;;;21.50;20.07;;;;;;;;;;5113250;28;20423;-78
2022/10/16 00:33:22;;;;;;;21.57;20.20;;;;;;;;;;5113672;28;20438;-78
2022/10/16 00:35:50;;;;;;;20.83;19.43;;;;;;;;;;5113403;28;20448;-79
2022/10/16 00:38:17;;;;;;;20.50;19.20;;;;;;;;;;5113421;28;20492;-78
2022/10/16 00:40:45;;;;;;;22.20;20.83;;;;;;;;;;5113790;28;20850;-79
2022/10/16 00:43:33;;;;;;;22.10;20.67;;;;;;;;;;5112187;28;20481;-78
2022/10/16 00:46:02;;;;;;;22.60;21.20;;;;;;;;;;5113180;28;20892;-78
2022/10/16 00:48:29;;;;;;;21.20;20.00;;;;;;;;;;5113231;28;20448;-79
2022/10/16 00:50:57;;;;;;;23.73;21.57;;;;;;;;;;5112648;28;20424;-78
2022/10/16 00:53:25;;;;;;;22.27;20.87;;;;;;;;;;5113148;28;20472;-77
2022/10/16 00:55:52;;;;;;;23.23;21.70;;;;;;;;;;5113530;28;20444;-79
2022/10/16 00:58:20;;;;;;;23.40;21.57;;;;;;;;;;5113593;28;20422;-78
2022/10/16 01:00:47;;;;;;;21.87;20.53;;;;;;;;;;5113138;28;20455;-78
2022/10/16 01:03:27;;;;;;;23.53;21.90;;;;;;;;;;5112906;28;20864;-79
2022/10/16 01:06:01;;;;;;;21.57;20.37;;;;;;;;;;5113369;28;20484;-79
2022/10/16 01:08:35;;;;;;;22.13;20.93;;;;;;;;;;5113464;28;20432;-79
2022/10/16 01:11:06;;;;;;;22.50;21.20;;;;;;;;;;5112945;28;20411;-78
2022/10/16 01:13:37;;;;;;;23.10;21.73;;;;;;;;;;5113031;28;20524;-78
2022/10/16 01:16:07;;;;;;;22.13;20.80;;;;;;;;;;5113411;28;20768;-78
2022/10/16 01:18:38;;;;;;;22.90;21.47;;;;;;;;;;5113182;28;20899;-78
2022/10/16 01:21:07;;;;;;;23.83;22.33;;;;;;;;;;5112953;28;20765;-79
2022/10/16 01:23:42;;;;;;;22.70;21.03;;;;;;;;;;5112853;28;20480;-79
2022/10/16 01:26:16;;;;;;;23.33;21.73;;;;;;;;;;5113162;28;20459;-79
2022/10/16 01:28:48;;;;;;;22.93;21.53;;;;;;;;;;5113223;28;21027;-78
2022/10/16 01:31:18;;;;;;;21.70;20.50;;;;;;;;;;5112464;28;20440;-79
2022/10/16 01:33:47;;;;;;;21.43;20.13;;;;;;;;;;5113207;28;20455;-78
2022/10/16 01:36:16;;;;;;;22.60;21.30;;;;;;;;;;5113070;28;20430;-78
2022/10/16 01:38:46;;;;;;;22.33;20.87;;;;;;;;;;5112843;28;20990;-78
2022/10/16 01:41:16;;;;;;;22.83;21.47;;;;;;;;;;5112617;28;20557;-78
2022/10/16 01:43:47;;;;;;;23.47;21.73;;;;;;;;;;5113247;28;20476;-78
2022/10/16 01:46:15;;;;;;;22.67;21.17;;;;;;;;;;5113075;28;20834;-78
2022/10/16 01:48:43;;;;;;;23.33;21.70;;;;;;;;;;5112822;28;20423;-79
2022/10/16 01:51:11;;;;;;;22.37;21.03;;;;;;;;;;5112323;28;20452;-79
2022/10/16 01:53:40;;;;;;;23.20;21.77;;;;;;;;;;5113840;28;20491;-78
2022/10/16 01:56:10;;;;;;;23.43;21.87;;;;;;;;;;5116742;28;20426;-78
2022/10/16 01:58:40;;;;;;;22.83;21.50;;;;;;;;;;5116727;28;20442;-79
2022/10/16 02:01:10;;;;;;;22.90;21.50;;;;;;;;;;5116284;28;20436;-77
2022/10/16 02:03:38;;;;;;;22.90;21.50;;;;;;;;;;5116462;28;20475;-79
2022/10/16 02:06:06;;;;;;;24.27;22.67;;;;;;;;;;5116424;28;20865;-79
2022/10/16 02:08:33;;;;;;;24.60;22.80;;;;;;;;;;5116092;28;20426;-78
2022/10/16 02:11:01;;;;;;;25.33;23.20;;;;;;;;;;5115707;28;20449;-79
2022/10/16 02:13:32;;;;;;;24.53;22.67;;;;;;;;;;5116138;28;20481;-79
2022/10/16 02:15:59;;;;;;;25.10;23.10;;;;;;;;;;5116515;28;20432;-78
2022/10/16 02:18:30;;;;;;;23.30;21.73;;;;;;;;;;5116547;28;20449;-78
2022/10/16 02:21:00;;;;;;;23.70;21.80;;;;;;;;;;5116345;28;20460;-79
2022/10/16 02:23:31;;;;;;;24.30;22.80;;;;;;;;;;5116270;28;20430;-79
2022/10/16 02:26:00;;;;;;;23.90;22.47;;;;;;;;;;5115844;28;20475;-78
2022/10/16 02:28:29;;;;;;;24.43;22.93;;;;;;;;;;5116024;28;20466;-78
2022/10/16 02:30:59;;;;;;;23.30;21.90;;;;;;;;;;5115500;28;20444;-79
2022/10/16 02:33:28;;;;;;;22.77;21.40;;;;;;;;;;5115843;28;20456;-79
2022/10/16 02:35:57;;;;;;;24.63;22.93;;;;;;;;;;5115568;28;20439;-77
2022/10/16 02:38:26;;;;;;;21.80;20.50;;;;;;;;;;5115796;28;20516;-79
2022/10/16 02:40:53;;;;;;;23.00;21.50;;;;;;;;;;5115394;28;20944;-79
2022/10/16 02:43:21;;;;;;;23.30;21.80;;;;;;;;;;5115716;28;20797;-78
2022/10/16 02:45:48;;;;;;;23.87;22.20;;;;;;;;;;5115651;28;20480;-79
2022/10/16 02:48:15;;;;;;;22.87;21.47;;;;;;;;;;5115319;28;20472;-79
2022/10/16 02:50:43;;;;;;;22.83;21.40;;;;;;;;;;5115604;28;20484;-78
2022/10/16 02:53:12;;;;;;;24.47;22.40;;;;;;;;;;5115122;28;20467;-78
2022/10/16 02:55:39;;;;;;;23.47;21.97;;;;;;;;;;5115582;28;20440;-79
2022/10/16 02:58:06;;;;;;;24.17;22.43;;;;;;;;;;5115543;28;20460;-79
2022/10/16 03:00:34;;;;;;;23.93;22.23;;;;;;;;;;5115414;28;20456;-79
2022/10/16 03:03:01;;;;;;;23.43;21.93;;;;;;;;;;5114578;28;20475;-78
2022/10/16 03:05:29;;;;;;;23.63;22.23;;;;;;;;;;5114157;28;20472;-77
2022/10/16 03:07:56;;;;;;;23.13;21.83;;;;;;;;;;5115143;28;20420;-79
2022/10/16 03:10:25;;;;;;;24.70;22.67;;;;;;;;;;5115108;28;20457;-78
2022/10/16 03:12:52;;;;;;;22.13;20.70;;;;;;;;;;5114584;28;20476;-78
2022/10/16 03:15:19;;;;;;;21.83;20.60;;;;;;;;;;5115238;28;20428;-79
2022/10/16 03:17:47;;;;;;;21.63;20.53;;;;;;;;;;5115172;28;20444;-78
2022/10/16 03:20:14;;;;;;;21.90;20.27;;;;;;;;;;5115059;28;20455;-79
2022/10/16 03:22:42;;;;;;;22.43;20.90;;;;;;;;;;5114169;28;20468;-77
2022/10/16 03:25:09;;;;;;;21.90;20.70;;;;;;;;;;5114485;28;20479;-78
2022/10/16 03:27:38;;;;;;;21.73;20.53;;;;;;;;;;5114878;28;20815;-79
2022/10/16 03:30:06;;;;;;;22.13;20.83;;;;;;;;;;5114693;28;20423;-78
2022/10/16 03:32:33;;;;;;;23.73;21.90;;;;;;;;;;5114217;28;20471;-78
2022/10/16 03:35:00;;;;;;;22.67;21.30;;;;;;;;;;5114485;28;20492;-78
2022/10/16 03:37:28;;;;;;;23.00;21.80;;;;;;;;;;5114463;28;20426;-79
2022/10/16 03:39:55;;;;;;;22.27;21.07;;;;;;;;;;5114604;28;20459;-78
2022/10/16 03:42:24;;;;;;;22.40;21.20;;;;;;;;;;5113963;28;20448;-79
2022/10/16 03:44:52;;;;;;;22.10;20.83;;;;;;;;;;5114242;28;20483;-78
2022/10/16 03:47:21;;;;;;;21.77;20.37;;;;;;;;;;5114644;28;20443;-79
2022/10/16 03:49:48;;;;;;;22.20;20.73;;;;;;;;;;5114582;28;20450;-78
2022/10/16 03:52:16;;;;;;;21.93;20.63;;;;;;;;;;5114044;28;20426;-79
2022/10/16 03:54:43;;;;;;;22.10;20.90;;;;;;;;;;5114129;28;20451;-78
2022/10/16 03:57:10;;;;;;;21.73;20.20;;;;;;;;;;5114045;28;20472;-78
2022/10/16 03:59:38;;;;;;;20.37;19.13;;;;;;;;;;5113963;28;20454;-78
2022/10/16 04:02:06;;;;;;;21.60;20.03;;;;;;;;;;5113450;28;20426;-78
2022/10/16 04:04:33;;;;;;;21.93;20.10;;;;;;;;;;5114224;28;20456;-80
2022/10/16 04:07:01;;;;;;;21.70;20.50;;;;;;;;;;5113771;28;20469;-78
2022/10/16 04:09:28;;;;;;;21.50;20.40;;;;;;;;;;5114020;28;20787;-79
2022/10/16 04:11:55;;;;;;;21.57;20.33;;;;;;;;;;5113476;28;20518;-79
2022/10/16 04:14:23;;;;;;;20.23;19.23;;;;;;;;;;5113661;28;20480;-78
2022/10/16 04:16:50;;;;;;;21.37;20.00;;;;;;;;;;5113795;28;20451;-78
2022/10/16 04:19:19;;;;;;;20.00;18.73;;;;;;;;;;5113635;28;20462;-79
2022/10/16 04:21:46;;;;;;;21.93;20.00;;;;;;;;;;5113368;28;20418;-79
2022/10/16 04:24:13;;;;;;;20.30;19.00;;;;;;;;;;5113910;28;20501;-79
2022/10/16 04:26:41;;;;;;;18.87;17.77;;;;;;;;;;5113911;28;20488;-78
2022/10/16 04:29:08;;;;;;;20.17;18.90;;;;;;;;;;5113691;28;20470;-78
2022/10/16 04:31:35;;;;;;;19.07;18.17;;;;;;;;;;5113401;28;20447;-79
2022/10/16 04:34:03;;;;;;;19.33;18.03;;;;;;;;;;5113266;28;20439;-78
2022/10/16 04:36:31;;;;;;;18.70;17.70;;;;;;;;;;5113626;28;20448;-78
2022/10/16 04:38:58;;;;;;;18.10;17.27;;;;;;;;;;5113608;28;20456;-78
2022/10/16 04:41:26;;;;;;;18.47;17.30;;;;;;;;;;5113037;28;20427;-79
2022/10/16 04:43:53;;;;;;;18.00;17.10;;;;;;;;;;5113606;28;20483;-79
2022/10/16 04:46:20;;;;;;;18.37;17.37;;;;;;;;;;5113495;28;20458;-78
2022/10/16 04:48:48;;;;;;;18.20;17.20;;;;;;;;;;5113639;28;20456;-79
2022/10/16 04:51:15;;;;;;;17.47;16.67;;;;;;;;;;5113002;28;20444;-77
2022/10/16 04:53:44;;;;;;;18.60;17.70;;;;;;;;;;5113426;28;20438;-78
2022/10/16 04:56:11;;;;;;;17.87;17.00;;;;;;;;;;5113208;28;20439;-78
2022/10/16 04:58:39;;;;;;;18.30;17.30;;;;;;;;;;5113099;28;20449;-78
2022/10/16 05:01:06;;;;;;;17.93;16.93;;;;;;;;;;5112825;28;20569;-79
2022/10/16 05:03:34;;;;;;;18.07;17.07;;;;;;;;;;5113301;28;20474;-79
2022/10/16 05:06:01;;;;;;;18.57;17.60;;;;;;;;;;5112952;28;20472;-79
2022/10/16 05:08:28;;;;;;;18.00;17.00;;;;;;;;;;5113174;28;20463;-78
2022/10/16 05:10:57;;;;;;;18.37;17.57;;;;;;;;;;5112708;28;20445;-80
2022/10/16 05:13:24;;;;;;;18.90;17.70;;;;;;;;;;5112797;28;20480;-78
2022/10/16 05:15:51;;;;;;;18.20;17.30;;;;;;;;;;5113235;28;20436;-79
2022/10/16 05:18:19;;;;;;;18.13;17.33;;;;;;;;;;5113250;28;20460;-79
2022/10/16 05:20:46;;;;;;;18.40;17.50;;;;;;;;;;5112866;28;20436;-79
2022/10/16 05:23:13;;;;;;;18.90;18.00;;;;;;;;;;5112397;28;20485;-80
2022/10/16 05:25:40;;;;;;;18.50;17.60;;;;;;;;;;5112717;28;20999;-79
2022/10/16 05:28:10;;;;;;;18.40;17.53;;;;;;;;;;5113369;28;20440;-79
2022/10/16 05:30:38;;;;;;;18.43;17.53;;;;;;;;;;5116777;28;20467;-78
2022/10/16 05:33:05;;;;;;;17.97;17.13;;;;;;;;;;5116705;28;20471;-78
2022/10/16 05:35:33;;;;;;;18.43;17.37;;;;;;;;;;5117055;28;20423;-78
2022/10/16 05:38:00;;;;;;;18.60;17.60;;;;;;;;;;5117101;28;20428;-78
2022/10/16 05:40:28;;;;;;;17.67;16.77;;;;;;;;;;5116790;28;20424;-78
2022/10/16 05:42:56;;;;;;;17.57;16.67;;;;;;;;;;5115906;27;20511;-79
2022/10/16 05:45:25;;;;;;;18.77;17.47;;;;;;;;;;5116820;28;20449;-79
2022/10/16 05:47:52;;;;;;;19.17;18.17;;;;;;;;;;5116914;28;20440;-79
2022/10/16 05:50:19;;;;;;;18.57;17.67;;;;;;;;;;5116831;28;20448;-79
2022/10/16 05:52:47;;;;;;;17.63;16.93;;;;;;;;;;5115872;28;20483;-78
2022/10/16 05:55:15;;;;;;;19.03;18.03;;;;;;;;;;5116409;28;20788;-79
2022/10/16 05:57:42;;;;;;;18.27;17.47;;;;;;;;;;5116772;28;20475;-78
2022/10/16 06:00:11;;;;;;;18.20;17.30;;;;;;;;;;5116334;28;20447;-78
2022/10/16 06:02:40;;;;;;;17.77;16.87;;;;;;;;;;5115595;28;20485;-79
2022/10/16 06:05:07;;;;;;;18.40;17.50;;;;;;;;;;5116280;28;20451;-79
2022/10/16 06:07:36;;;;;;;18.60;17.60;;;;;;;;;;5116102;28;20483;-78
2022/10/16 06:10:04;;;;;;;18.73;17.83;;;;;;;;;;5116041;28;20935;-78
2022/10/16 06:12:31;;;;;;;18.90;17.90;;;;;;;;;;5115572;28;20454;-77
2022/10/16 06:14:58;;;;;;;18.07;17.20;;;;;;;;;;5115937;28;20444;-76
2022/10/16 06:17:26;;;;;;;18.30;17.40;;;;;;;;;;5115779;28;20448;-76
2022/10/16 06:19:54;;;;;;;18.77;17.70;;;;;;;;;;5116151;28;20451;-77
2022/10/16 06:22:22;;;;;;;17.80;16.90;;;;;;;;;;5115436;28;20453;-76
2022/10/16 06:24:49;;;;;;;18.00;17.20;;;;;;;;;;5115674;28;20441;-77
2022/10/16 06:27:17;;;;;;;17.70;16.87;;;;;;;;;;5115879;28;20490;-77
2022/10/16 06:29:44;;;;;;;18.63;17.83;;;;;;;;;;5115925;28;20460;-78
2022/10/16 06:32:12;;;;;;;18.13;16.83;;;;;;;;;;5115355;28;20516;-76
2022/10/16 06:34:39;;;;;;;16.70;15.90;;;;;;;;;;5115526;28;20455;-77
2022/10/16 06:37:08;;;;;;;18.17;17.37;;;;;;;;;;5115486;28;20492;-77
2022/10/16 06:39:35;;;;;;;17.27;16.37;;;;;;;;;;5115256;28;20420;-76
2022/10/16 06:42:03;;;;;;;16.53;15.67;;;;;;;;;;5114706;28;20452;-76
2022/10/16 06:44:30;;;;;;;17.43;16.63;;;;;;;;;;5115598;28;20451;-76
2022/10/16 06:46:58;;;;;;;17.03;16.07;;;;;;;;;;5115219;28;20462;-76
2022/10/16 06:49:25;;;;;;;17.23;16.23;;;;;;;;;;5115556;28;20455;-77
2022/10/16 06:51:52;;;;;;;16.77;15.87;;;;;;;;;;5114991;28;20451;-77
2022/10/16 06:54:21;;;;;;;17.60;16.70;;;;;;;;;;5115315;28;20463;-76
2022/10/16 06:56:48;;;;;;;16.17;15.50;;;;;;;;;;5115392;28;20449;-76
2022/10/16 06:59:15;;;;;;;17.10;16.20;;;;;;;;;;5115048;28;20465;-77
2022/10/16 07:01:43;;;;;;;17.40;16.70;;;;;;;;;;5114487;28;20453;-76
2022/10/16 07:04:10;;;;;;;17.30;16.53;;;;;;;;;;5114851;28;20476;-76
2022/10/16 07:06:37;;;;;;;17.37;16.47;;;;;;;;;;5114744;28;20974;-77
2022/10/16 07:09:06;;;;;;;17.90;17.00;;;;;;;;;;5114843;28;20801;-76
2022/10/16 07:11:35;;;;;;;17.53;16.50;;;;;;;;;;5114334;28;20963;-76
2022/10/16 07:14:02;;;;;;;18.07;17.10;;;;;;;;;;5114615;28;20482;-77
2022/10/16 07:16:30;;;;;;;17.97;17.17;;;;;;;;;;5115023;27;20449;-76
2022/10/16 07:18:58;;;;;;;16.80;16.00;;;;;;;;;;5114950;28;20452;-77
2022/10/16 07:21:28;;;;;;;16.90;16.20;;;;;;;;;;5114275;28;20514;-77
2022/10/16 07:23:56;;;;;;;17.07;16.27;;;;;;;;;;5114787;28;20507;-76
2022/10/16 07:26:24;;;;;;;17.33;16.20;;;;;;;;;;5114770;28;20608;-77
2022/10/16 07:28:53;;;;;;;16.90;16.10;;;;;;;;;;5114480;28;20449;-77
2022/10/16 07:31:21;;;;;;;17.37;16.57;;;;;;;;;;5113881;28;20453;-76
2022/10/16 07:33:48;;;;;;;16.37;15.57;;;;;;;;;;5114391;28;20451;-77
2022/10/16 07:36:16;;;;;;;17.33;16.03;;;;;;;;;;5114276;28;20446;-77
2022/10/16 07:38:43;;;;;;;16.90;16.00;;;;;;;;;;5114696;28;20432;-77
2022/10/16 07:41:11;;;;;;;16.10;15.40;;;;;;;;;;5114012;28;20782;-76
2022/10/16 07:43:39;;;;;;;16.70;15.80;;;;;;;;;;5114370;28;20468;-76
2022/10/16 07:46:08;;;;;;;17.20;16.20;;;;;;;;;;5114350;28;20483;-76
2022/10/16 07:48:36;;;;;;;16.13;15.23;;;;;;;;;;5114000;28;20449;-77
2022/10/16 07:51:05;;;;;;;15.90;15.20;;;;;;;;;;5113456;28;20449;-78
2022/10/16 07:53:32;;;;;;;16.73;16.03;;;;;;;;;;5113983;28;20477;-76
2022/10/16 07:56:01;;;;;;;17.10;16.30;;;;;;;;;;5113888;28;20464;-77
2022/10/16 07:58:29;;;;;;;17.47;16.57;;;;;;;;;;5113923;28;20924;-77
2022/10/16 08:00:56;;;;;;;17.43;16.53;;;;;;;;;;5113584;28;20491;-77
2022/10/16 08:03:25;;;;;;;17.70;16.80;;;;;;;;;;5113982;28;20469;-76
2022/10/16 08:05:52;;;;;;;17.37;16.57;;;;;;;;;;5113784;28;20440;-77
2022/10/16 08:08:20;;;;;;;16.90;16.10;;;;;;;;;;5113764;28;20453;-77
2022/10/16 08:10:47;;;;;;;17.47;16.47;;;;;;;;;;5113898;28;20931;-77
2022/10/16 08:13:15;;;;;;;17.37;16.47;;;;;;;;;;5113090;28;20978;-76
2022/10/16 08:15:42;;;;;;;16.43;15.73;;;;;;;;;;5113628;28;20476;-77
2022/10/16 08:18:11;;;;;;;16.37;15.57;;;;;;;;;;5113738;28;20440;-76
2022/10/16 08:20:40;;;;;;;16.20;15.40;;;;;;;;;;5113740;28;20455;-76
2022/10/16 08:23:07;;;;;;;16.20;15.50;;;;;;;;;;5113056;28;20468;-76
2022/10/16 08:25:36;;;;;;;16.07;15.30;;;;;;;;;;5113360;28;20448;-76
2022/10/16 08:28:05;;;;;;;16.10;15.40;;;;;;;;;;5113605;28;20455;-77
2022/10/16 08:30:33;;;;;;;15.50;14.80;;;;;;;;;;5113237;28;20426;-77
2022/10/16 08:33:00;;;;;;;16.70;15.90;;;;;;;;;;5113068;28;20881;-76
2022/10/16 08:35:28;;;;;;;16.60;15.60;;;;;;;;;;5113525;28;20474;-77
2022/10/16 08:37:57;;;;;;;16.53;15.63;;;;;;;;;;5113452;28;20443;-76
2022/10/16 08:40:26;;;;;;;16.60;15.90;;;;;;;;;;5113205;28;20443;-77
2022/10/16 08:42:59;;;;;;;16.80;15.83;;;;;;;;;;5112998;28;20470;-78
2022/10/16 08:45:31;;;;;;;15.50;14.80;;;;;;;;;;5113542;28;20447;-77
2022/10/16 08:48:02;;;;;;;16.23;15.43;;;;;;;;;;5113323;28;20442;-76
2022/10/16 08:50:31;;;;;;;16.40;15.60;;;;;;;;;;5113472;28;20437;-76
2022/10/16 08:53:00;;;;;;;16.30;15.60;;;;;;;;;;5112522;28;20472;-77
2022/10/16 08:55:32;;;;;;;17.37;16.27;;;;;;;;;;5113111;28;20448;-77
2022/10/16 08:57:59;;;;;;;16.80;15.70;;;;;;;;;;5112988;28;20456;-77
2022/10/16 09:00:28;;;;;;;16.63;15.73;;;;;;;;;;5113280;28;20524;-76
2022/10/16 09:03:00;;;;;;;16.70;15.90;;;;;;;;;;5112695;28;20478;-78
2022/10/16 09:05:38;;;;;;;17.23;16.43;;;;;;;;;;5117551;28;20410;-76
2022/10/16 09:08:11;;;;;;;16.63;15.83;;;;;;;;;;5117278;28;20843;-77
2022/10/16 09:10:41;;;;;;;16.97;16.17;;;;;;;;;;5117536;28;20477;-77
2022/10/16 09:13:13;;;;;;;16.93;16.03;;;;;;;;;;5116444;28;20993;-76
2022/10/16 09:15:41;;;;;;;16.33;15.53;;;;;;;;;;5117424;28;20433;-77
2022/10/16 09:18:13;;;;;;;17.37;16.47;;;;;;;;;;5117103;28;20419;-77
2022/10/16 09:20:46;;;;;;;17.20;16.20;;;;;;;;;;5117002;28;20905;-77
2022/10/16 09:23:19;;;;;;;17.27;16.47;;;;;;;;;;5116976;28;20471;-76
2022/10/16 09:25:48;;;;;;;17.50;16.57;;;;;;;;;;5117288;28;20432;-76
2022/10/16 09:28:16;;;;;;;17.90;16.70;;;;;;;;;;5117068;28;20508;-77
2022/10/16 09:30:44;;;;;;;17.17;16.27;;;;;;;;;;5116890;28;20446;-76
2022/10/16 09:33:12;;;;;;;17.50;16.60;;;;;;;;;;5116252;28;20947;-77
2022/10/16 09:35:41;;;;;;;18.33;17.33;;;;;;;;;;5116990;28;20537;-77
2022/10/16 09:38:09;;;;;;;17.60;16.70;;;;;;;;;;5116692;27;20429;-77
2022/10/16 09:40:39;;;;;;;17.50;16.60;;;;;;;;;;5116641;28;20502;-77
2022/10/16 09:43:18;;;;;;;17.30;16.27;;;;;;;;;;5116431;28;20465;-76
2022/10/16 09:45:55;;;;;;;17.90;16.80;;;;;;;;;;5116860;28;20488;-77
2022/10/16 09:48:22;;;;;;;18.50;17.50;;;;;;;;;;5116392;28;20471;-77
2022/10/16 09:50:57;;;;;;;18.10;17.10;;;;;;;;;;5116281;28;20432;-77
2022/10/16 09:53:25;;;;;;;19.10;17.90;;;;;;;;;;5116591;28;20471;-77
2022/10/16 09:55:54;;;;;;;18.70;17.80;;;;;;;;;;5116253;28;20416;-77
2022/10/16 09:58:23;;;;;;;18.53;17.33;;;;;;;;;;5116730;28;20464;-77
2022/10/16 10:00:51;;;;;;;18.47;17.47;;;;;;;;;;5116444;28;20476;-77
2022/10/16 10:03:31;;;;;;;17.40;16.50;;;;;;;;;;5115855;28;21034;-77
2022/10/16 10:05:59;;;;;;;17.80;17.00;;;;;;;;;;5116091;28;20435;-77
2022/10/16 10:08:26;;;;;;;18.63;17.63;;;;;;;;;;5116250;28;20817;-77
2022/10/16 10:10:55;;;;;;;18.93;17.83;;;;;;;;;;5116188;28;20448;-78
2022/10/16 10:13:23;;;;;;;17.90;16.90;;;;;;;;;;5115916;28;20516;-77
2022/10/16 10:15:52;;;;;;;18.67;17.57;;;;;;;;;;5115780;28;21003;-77
2022/10/16 10:18:21;;;;;;;18.20;17.20;;;;;;;;;;5116092;28;20449;-76
2022/10/16 10:20:58;;;;;;;18.67;17.50;;;;;;;;;;5115981;28;20828;-77
2022/10/16 10:23:26;;;;;;;19.30;18.30;;;;;;;;;;5116030;28;20466;-76
2022/10/16 10:25:57;;;;;;;18.70;17.60;;;;;;;;;;5115972;28;20492;-76
2022/10/16 10:28:46;;;;;;;18.60;17.50;;;;;;;;;;5115959;28;20442;-77
2022/10/16 10:31:16;;;;;;;18.93;17.93;;;;;;;;;;5115486;28;20491;-77
2022/10/16 10:33:46;;;;;;;18.33;17.33;;;;;;;;;;5115800;28;20524;-76
2022/10/16 10:36:18;;;;;;;19.63;18.43;;;;;;;;;;5115462;28;20447;-76
2022/10/16 10:38:49;;;;;;;19.37;18.27;;;;;;;;;;5115459;28;20449;-77
2022/10/16 10:41:37;;;;;;;19.60;18.50;;;;;;;;;;5115284;28;20409;-77
2022/10/16 10:44:09;;;;;;;19.23;18.10;;;;;;;;;;5089292;28;20457;-77
2022/10/16 10:46:37;;;;;;;20.03;18.60;;;;;;;;;;5115700;28;20411;-76
2022/10/16 10:49:13;;;;;;;19.70;18.67;;;;;;;;;;5115373;28;20481;-77
2022/10/16 10:51:46;;;;;;;20.40;19.10;;;;;;;;;;5115064;28;20595;-77
2022/10/16 10:54:16;;;;;;;19.40;18.30;;;;;;;;;;5114862;27;20553;-77
2022/10/16 10:56:46;;;;;;;19.90;18.80;;;;;;;;;;5115180;28;20407;-76
2022/10/16 10:59:23;;;;;;;20.27;18.97;;;;;;;;;;5115171;28;20428;-77
2022/10/16 11:01:53;;;;;;;20.33;19.13;;;;;;;;;;5114909;28;20402;-77
2022/10/16 11:04:31;;;;;;;20.57;19.50;;;;;;;;;;5114934;28;20969;-76
2022/10/16 11:07:00;;;;;;;20.60;19.50;;;;;;;;;;5114866;28;20410;-77
2022/10/16 11:09:30;;;;;;;20.10;18.90;;;;;;;;;;5114892;28;20433;-76
2022/10/16 11:11:59;;;;;;;20.50;19.00;;;;;;;;;;5114286;28;20865;-76
2022/10/16 11:14:32;;;;;;;20.17;19.07;;;;;;;;;;5114839;28;20479;-77
2022/10/16 11:17:01;;;;;;;19.97;18.87;;;;;;;;;;5115084;28;20409;-76
2022/10/16 11:19:33;;;;;;;20.00;18.90;;;;;;;;;;5115211;28;20461;-77
2022/10/16 11:22:02;;;;;;;20.27;19.10;;;;;;;;;;5114611;28;20814;-76
2022/10/16 11:24:36;;;;;;;20.80;19.63;;;;;;;;;;5114807;28;20445;-76
2022/10/16 11:27:06;;;;;;;20.83;19.60;;;;;;;;;;5114308;28;20456;-76
2022/10/16 11:29:37;;;;;;;21.30;20.20;;;;;;;;;;5115323;28;20462;-77
2022/10/16 11:32:07;;;;;;;20.50;19.00;;;;;;;;;;5114212;28;20439;-79
2022/10/16 11:34:37;;;;;;;20.77;19.70;;;;;;;;;;5114551;28;20426;-76
2022/10/16 11:37:06;;;;;;;20.93;19.57;;;;;;;;;;5114434;28;20427;-77
2022/10/16 11:39:34;;;;;;;21.40;19.40;;;;;;;;;;5114594;28;20427;-76
2022/10/16 11:42:04;;;;;;;20.90;19.57;;;;;;;;;;5114150;28;20434;-76
2022/10/16 11:44:47;;;;;;;20.07;18.97;;;;;;;;;;5114818;28;20403;-77
2022/10/16 11:47:21;;;;;;;21.50;20.07;;;;;;;;;;5114492;28;20404;-77
2022/10/16 11:49:51;;;;;;;20.10;18.90;;;;;;;;;;5114833;28;20442;-77
2022/10/16 11:52:20;;;;;;;20.93;19.83;;;;;;;;;;5114000;28;20415;-77
2022/10/16 11:54:51;;;;;;;20.87;19.67;;;;;;;;;;5114417;28;20421;-77
2022/10/16 11:57:20;;;;;;;21.37;20.27;;;;;;;;;;5114520;28;20414;-77
2022/10/16 11:59:52;;;;;;;21.40;20.10;;;;;;;;;;5114104;28;20451;-76
2022/10/16 12:02:37;;;;;;;20.20;19.20;;;;;;;;;;5113398;28;20838;-76
2022/10/16 12:05:11;;;;;;;21.03;19.73;;;;;;;;;;5114064;28;20473;-76
2022/10/16 12:07:40;;;;;;;20.00;19.00;;;;;;;;;;5113807;28;20494;-77
2022/10/16 12:10:21;;;;;;;20.40;19.20;;;;;;;;;;5114067;28;20454;-77
2022/10/16 12:12:48;;;;;;;20.20;19.03;;;;;;;;;;5113135;28;20493;-76
2022/10/16 12:15:22;;;;;;;20.33;19.23;;;;;;;;;;5113774;28;20449;-76
2022/10/16 12:17:49;;;;;;;20.33;19.23;;;;;;;;;;5113746;27;20444;-77
2022/10/16 12:20:21;;;;;;;20.83;19.60;;;;;;;;;;5113888;28;20454;-76
2022/10/16 12:22:50;;;;;;;20.03;18.90;;;;;;;;;;5112987;28;20475;-77
2022/10/16 12:25:25;;;;;;;19.47;18.47;;;;;;;;;;5113764;28;20453;-79
2022/10/16 12:27:56;;;;;;;20.53;19.47;;;;;;;;;;5113566;28;20480;-77
2022/10/16 12:30:26;;;;;;;20.77;19.17;;;;;;;;;;5113449;28;20511;-77
2022/10/16 12:32:58;;;;;;;20.37;19.27;;;;;;;;;;5113095;28;20454;-76
2022/10/16 12:35:27;;;;;;;20.37;19.27;;;;;;;;;;5113418;28;20428;-77
2022/10/16 12:37:55;;;;;;;20.10;19.00;;;;;;;;;;5113766;28;20480;-76
2022/10/16 12:40:27;;;;;;;20.43;19.33;;;;;;;;;;5113419;28;20426;-77
2022/10/16 12:42:54;;;;;;;20.40;19.20;;;;;;;;;;5112978;28;20466;-76
2022/10/16 12:45:28;;;;;;;20.97;19.87;;;;;;;;;;5113269;28;20524;-77
2022/10/16 12:47:56;;;;;;;20.37;19.23;;;;;;;;;;5113300;28;20462;-76
2022/10/16 12:50:30;;;;;;;20.73;19.50;;;;;;;;;;5113233;28;20445;-77
2022/10/16 12:52:57;;;;;;;19.90;18.53;;;;;;;;;;5112552;28;20461;-77
2022/10/16 12:55:27;;;;;;;20.23;19.13;;;;;;;;;;5113440;28;20454;-77
2022/10/16 12:58:11;;;;;;;20.57;19.07;;;;;;;;;;5113101;28;20446;-77
2022/10/16 13:00:44;;;;;;;20.30;19.10;;;;;;;;;;5113099;28;20443;-76
2022/10/16 13:03:42;;;;;;;20.87;19.70;;;;;;;;;;5112887;28;20473;-76
2022/10/16 13:06:18;;;;;;;20.03;18.93;;;;;;;;;;5050302;28;20426;-77
2022/10/16 13:08:52;;;;;;;21.07;19.87;;;;;;;;;;5102543;28;20862;-77
2022/10/16 13:11:25;;;;;;;20.80;19.57;;;;;;;;;;5112444;28;20479;-77
2022/10/16 13:14:08;;;;;;;21.27;19.87;;;;;;;;;;5112562;27;20499;-77
2022/10/16 13:16:42;;;;;;;20.40;19.20;;;;;;;;;;5112925;28;20451;-77
2022/10/16 13:19:17;;;;;;;20.60;19.40;;;;;;;;;;5113279;28;20428;-77
2022/10/16 13:21:47;;;;;;;21.63;20.43;;;;;;;;;;5112472;28;20461;-76
2022/10/16 13:24:22;;;;;;;20.70;19.53;;;;;;;;;;5113095;28;20511;-77
2022/10/16 13:26:54;;;;;;;21.30;20.00;;;;;;;;;;5113071;28;20438;-78
2022/10/16 13:29:22;;;;;;;21.57;20.37;;;;;;;;;;5112756;28;20487;-77
2022/10/16 13:31:50;;;;;;;21.10;19.60;;;;;;;;;;5112588;28;20455;-77
2022/10/16 13:34:19;;;;;;;20.43;19.10;;;;;;;;;;5112985;28;20474;-77
2022/10/16 13:36:50;;;;;;;21.43;20.33;;;;;;;;;;5112675;28;20451;-76
2022/10/16 13:39:22;;;;;;;21.20;20.10;;;;;;;;;;5112858;28;20443;-77
2022/10/16 13:41:59;;;;;;;20.50;19.40;;;;;;;;;;5112209;28;20454;-77
2022/10/16 13:44:26;;;;;;;21.93;20.67;;;;;;;;;;5112535;28;20473;-77
2022/10/16 13:47:01;;;;;;;20.47;19.37;;;;;;;;;;5112578;28;20943;-77
2022/10/16 13:49:29;;;;;;;21.10;20.00;;;;;;;;;;5113679;28;20469;-77
2022/10/16 13:51:56;;;;;;;21.13;19.93;;;;;;;;;;5116282;28;20450;-76
2022/10/16 13:54:24;;;;;;;20.60;19.50;;;;;;;;;;5116325;28;20471;-78
2022/10/16 13:56:51;;;;;;;20.47;19.27;;;;;;;;;;5116699;28;20497;-77
2022/10/16 13:59:26;;;;;;;20.40;19.20;;;;;;;;;;5116300;28;20492;-76
2022/10/16 14:01:55;;;;;;;19.90;18.60;;;;;;;;;;5115906;28;20449;-77
2022/10/16 14:04:24;;;;;;;20.20;19.10;;;;;;;;;;5116124;28;20474;-76
2022/10/16 14:06:52;;;;;;;20.13;18.87;;;;;;;;;;5116340;28;20452;-77
2022/10/16 14:09:23;;;;;;;20.50;19.40;;;;;;;;;;5118289;28;20517;-82
2022/10/16 14:11:52;;;;;;;20.83;19.63;;;;;;;;;;5115543;27;20471;-76
2022/10/16 14:14:20;;;;;;;20.77;19.57;;;;;;;;;;5117058;28;20480;-77
2022/10/16 14:16:47;;;;;;;21.07;19.97;;;;;;;;;;5116297;28;20445;-78
2022/10/16 14:19:18;;;;;;;20.80;19.50;;;;;;;;;;5117986;28;20428;-73
2022/10/16 14:21:47;;;;;;;20.67;19.37;;;;;;;;;;5114251;27;20460;-73
2022/10/16 14:24:15;;;;;;;20.90;19.70;;;;;;;;;;5115956;28;20536;-73
2022/10/16 14:26:43;;;;;;;20.80;19.60;;;;;;;;;;5115664;28;20434;-77
2022/10/16 14:29:13;;;;;;;20.63;19.50;;;;;;;;;;5115883;28;20572;-72